Airfield :
LOGIN :

Register | Disclaimer

   EN    FR    IT 

 










Legend :    VFR   Marginal VFR   IFR   Intensive IFR   Very Intensive IFR
Visi :
Ceiling :
>= 8 km
>= 3000ft
5 to 8 km
1000 to 3000 ft
1500m to 5 km
500 to 1000 ft
800 to 1500m
200 to 500 ft
< 800m
< 200 ft
Symbols :   Thunderstorms  Fog  Heavy snow  Heavy precipitations  Wind > 20 kt
SIGMETs :     Misc.  Thunderstorms  Icing  Turbulence  Mountain Waves  Volcanic Ashes







- Airport Elevation : 3 ft
- IATA code : LWR


EHLW - Leuuwarden Air Base

CURRENT METAR :
  • 210427Z AUTO 32011KT 290V360 9999 FEW016 SCT020 02/01 Q1008 WHT

EXPIRED METARs :
  • 210425Z AUTO 32011KT 9999 FEW018/// 03/01 Q1008 BLU
  • 210413Z AUTO 31013KT 280V350 9999 FEW017/// SCT024/// 03/01 Q1007 WHT
  • 210409Z AUTO 31012KT 9999 FEW021/// SCT026/// 03/01 Q1007 BLU
  • 210355Z AUTO 31011KT 270V350 9999 -RA FEW012/// SCT019/// BKN025/// 03/01 Q1007 WHT
  • 210331Z AUTO 32008KT 280V360 9999 -DZ FEW015 SCT022 BKN028 02/01 Q1007 WHT
  • 210325Z AUTO 32009KT 280V350 9999 FEW044 02/00 Q1007 BLU
  • 210300Z AUTO 32014KT 290V350 9999 -RA FEW015CB BKN030 BKN041 02/01 Q1007 BLU
  • 210255Z AUTO 32016G28KT 290V010 9999 -RA FEW011 SCT014 FEW015CB BKN017 02/01 Q1006 GRN
  • 210247Z AUTO 31010G20KT 270V360 9999 FEW014 SCT023 BKN035 02/00 Q1006 WHT
  • 210226Z AUTO 31012KT 290V350 9999 FEW013 02/00 Q1006 BLU
  • 210225Z AUTO 31011KT 280V350 9999 -UP FEW013 SCT023 02/00 Q1006 WHT
  • 210210Z AUTO 31010KT 280V340 9999 FEW019 SCT022 03/00 Q1006 WHT
  • 210155Z AUTO 30010KT 9999 FEW015CB 03/00 Q1005 BLU

Expired Forecast.
No reported NOTAMs for that airfield.



MET'MAP, your aeronautical weather chart ! - Copyright ORBIFLY December 2007 - Disclaimer

ORBIFLY MET'MAP TEAM :

Programming & Development : Alexandra Zaïnal
Concept & Development : Baudouin d'Aumeries
Co-Development & Prog : Marc-Olivier Méhu
Technical & hardware support : Manuel Goepfert

Contact : metmap@orbifly.com




SOURCES & CREDITS :

   NOAA